sensor_id;sensor_type;location;lat;lon;timestamp;P1;durP1;ratioP1;P2;durP2;ratioP2
26540;SDS011;14206;50.202;10.948;2024-03-02T00:01:36;21.08;;;13.18;;
26540;SDS011;14206;50.202;10.948;2024-03-02T00:04:04;20.30;;;12.82;;
26540;SDS011;14206;50.202;10.948;2024-03-02T00:06:33;19.83;;;12.07;;
26540;SDS011;14206;50.202;10.948;2024-03-02T00:09:01;25.23;;;15.57;;
26540;SDS011;14206;50.202;10.948;2024-03-02T00:11:28;22.20;;;14.63;;
26540;SDS011;14206;50.202;10.948;2024-03-02T00:13:55;22.88;;;14.23;;
26540;SDS011;14206;50.202;10.948;2024-03-02T00:16:22;20.83;;;13.63;;
26540;SDS011;14206;50.202;10.948;2024-03-02T00:18:50;23.65;;;14.55;;
26540;SDS011;14206;50.202;10.948;2024-03-02T00:21:17;21.00;;;13.52;;
26540;SDS011;14206;50.202;10.948;2024-03-02T00:23:47;19.17;;;12.73;;
26540;SDS011;14206;50.202;10.948;2024-03-02T00:26:18;21.90;;;13.35;;
26540;SDS011;14206;50.202;10.948;2024-03-02T00:28:45;23.33;;;15.13;;
26540;SDS011;14206;50.202;10.948;2024-03-02T00:31:12;27.27;;;16.60;;
26540;SDS011;14206;50.202;10.948;2024-03-02T00:33:46;24.77;;;16.00;;
26540;SDS011;14206;50.202;10.948;2024-03-02T00:36:15;23.10;;;14.32;;
26540;SDS011;14206;50.202;10.948;2024-03-02T00:38:48;21.70;;;13.57;;
26540;SDS011;14206;50.202;10.948;2024-03-02T00:41:18;23.52;;;14.68;;
26540;SDS011;14206;50.202;10.948;2024-03-02T00:44:02;26.00;;;15.02;;
26540;SDS011;14206;50.202;10.948;2024-03-02T00:46:40;22.02;;;14.40;;
26540;SDS011;14206;50.202;10.948;2024-03-02T00:51:46;22.48;;;13.48;;
26540;SDS011;14206;50.202;10.948;2024-03-02T00:54:15;24.95;;;15.43;;
26540;SDS011;14206;50.202;10.948;2024-03-02T00:56:51;23.80;;;15.45;;
26540;SDS011;14206;50.202;10.948;2024-03-02T00:59:18;28.38;;;17.13;;
26540;SDS011;14206;50.202;10.948;2024-03-02T01:01:45;28.23;;;17.40;;
26540;SDS011;14206;50.202;10.948;2024-03-02T01:04:13;26.48;;;16.17;;
26540;SDS011;14206;50.202;10.948;2024-03-02T01:06:44;23.50;;;14.85;;
26540;SDS011;14206;50.202;10.948;2024-03-02T01:09:12;19.75;;;13.15;;
26540;SDS011;14206;50.202;10.948;2024-03-02T01:11:39;21.83;;;13.95;;
26540;SDS011;14206;50.202;10.948;2024-03-02T01:14:06;19.02;;;12.18;;
26540;SDS011;14206;50.202;10.948;2024-03-02T01:16:33;21.60;;;13.52;;
26540;SDS011;14206;50.202;10.948;2024-03-02T01:19:00;25.00;;;15.50;;
26540;SDS011;14206;50.202;10.948;2024-03-02T01:21:27;20.88;;;13.40;;
26540;SDS011;14206;50.202;10.948;2024-03-02T01:23:54;19.50;;;13.00;;
26540;SDS011;14206;50.202;10.948;2024-03-02T01:26:21;20.15;;;13.05;;
26540;SDS011;14206;50.202;10.948;2024-03-02T01:28:48;20.73;;;12.30;;
26540;SDS011;14206;50.202;10.948;2024-03-02T01:31:15;20.70;;;12.82;;
26540;SDS011;14206;50.202;10.948;2024-03-02T01:33:42;21.70;;;13.23;;
26540;SDS011;14206;50.202;10.948;2024-03-02T01:36:09;17.83;;;11.90;;
26540;SDS011;14206;50.202;10.948;2024-03-02T01:38:36;19.85;;;12.63;;
26540;SDS011;14206;50.202;10.948;2024-03-02T01:41:03;19.73;;;12.10;;
26540;SDS011;14206;50.202;10.948;2024-03-02T01:43:30;22.15;;;12.50;;
26540;SDS011;14206;50.202;10.948;2024-03-02T01:45:56;22.30;;;13.63;;
26540;SDS011;14206;50.202;10.948;2024-03-02T01:48:24;24.52;;;15.00;;
26540;SDS011;14206;50.202;10.948;2024-03-02T01:50:50;20.88;;;13.15;;
26540;SDS011;14206;50.202;10.948;2024-03-02T01:53:17;23.75;;;14.40;;
26540;SDS011;14206;50.202;10.948;2024-03-02T01:55:45;22.15;;;14.80;;
26540;SDS011;14206;50.202;10.948;2024-03-02T01:58:13;20.45;;;12.98;;
26540;SDS011;14206;50.202;10.948;2024-03-02T02:00:40;23.88;;;14.23;;
26540;SDS011;14206;50.202;10.948;2024-03-02T02:03:09;24.05;;;14.73;;
26540;SDS011;14206;50.202;10.948;2024-03-02T02:05:36;23.15;;;14.85;;
26540;SDS011;14206;50.202;10.948;2024-03-02T02:08:03;24.13;;;14.63;;
26540;SDS011;14206;50.202;10.948;2024-03-02T02:10:33;22.95;;;15.00;;
26540;SDS011;14206;50.202;10.948;2024-03-02T02:13:00;21.23;;;13.82;;
26540;SDS011;14206;50.202;10.948;2024-03-02T02:15:30;18.52;;;12.63;;
26540;SDS011;14206;50.202;10.948;2024-03-02T02:18:00;21.35;;;13.63;;
26540;SDS011;14206;50.202;10.948;2024-03-02T02:20:27;21.85;;;12.65;;
26540;SDS011;14206;50.202;10.948;2024-03-02T02:22:55;18.63;;;12.40;;
26540;SDS011;14206;50.202;10.948;2024-03-02T02:25:22;19.02;;;12.20;;
26540;SDS011;14206;50.202;10.948;2024-03-02T02:27:49;16.98;;;11.38;;
26540;SDS011;14206;50.202;10.948;2024-03-02T02:30:20;19.23;;;11.63;;
26540;SDS011;14206;50.202;10.948;2024-03-02T02:32:51;17.50;;;11.65;;
26540;SDS011;14206;50.202;10.948;2024-03-02T02:35:18;18.83;;;11.93;;
26540;SDS011;14206;50.202;10.948;2024-03-02T02:37:45;18.23;;;11.63;;
26540;SDS011;14206;50.202;10.948;2024-03-02T02:40:13;19.77;;;12.43;;
26540;SDS011;14206;50.202;10.948;2024-03-02T02:42:40;17.05;;;11.07;;
26540;SDS011;14206;50.202;10.948;2024-03-02T02:45:07;17.50;;;11.27;;
26540;SDS011;14206;50.202;10.948;2024-03-02T02:47:35;18.15;;;11.73;;
26540;SDS011;14206;50.202;10.948;2024-03-02T02:50:02;20.83;;;12.98;;
26540;SDS011;14206;50.202;10.948;2024-03-02T02:52:37;21.15;;;12.88;;
26540;SDS011;14206;50.202;10.948;2024-03-02T02:55:06;23.55;;;15.20;;
26540;SDS011;14206;50.202;10.948;2024-03-02T02:57:35;23.85;;;13.73;;
26540;SDS011;14206;50.202;10.948;2024-03-02T03:00:08;18.50;;;12.57;;
26540;SDS011;14206;50.202;10.948;2024-03-02T03:02:47;21.90;;;14.55;;
26540;SDS011;14206;50.202;10.948;2024-03-02T03:05:17;21.75;;;13.40;;
26540;SDS011;14206;50.202;10.948;2024-03-02T03:07:44;17.75;;;11.57;;
26540;SDS011;14206;50.202;10.948;2024-03-02T03:10:11;19.10;;;12.35;;
26540;SDS011;14206;50.202;10.948;2024-03-02T03:12:40;20.58;;;13.05;;
26540;SDS011;14206;50.202;10.948;2024-03-02T03:15:09;18.90;;;11.57;;
26540;SDS011;14206;50.202;10.948;2024-03-02T03:17:37;20.17;;;12.00;;
26540;SDS011;14206;50.202;10.948;2024-03-02T03:20:11;17.92;;;11.18;;
26540;SDS011;14206;50.202;10.948;2024-03-02T03:22:38;17.55;;;11.98;;
26540;SDS011;14206;50.202;10.948;2024-03-02T03:25:05;17.92;;;11.80;;
26540;SDS011;14206;50.202;10.948;2024-03-02T03:27:34;18.50;;;11.68;;
26540;SDS011;14206;50.202;10.948;2024-03-02T03:30:02;19.08;;;11.10;;
26540;SDS011;14206;50.202;10.948;2024-03-02T03:32:29;20.45;;;12.35;;
26540;SDS011;14206;50.202;10.948;2024-03-02T03:34:56;20.25;;;12.57;;
26540;SDS011;14206;50.202;10.948;2024-03-02T03:37:23;20.77;;;13.25;;
26540;SDS011;14206;50.202;10.948;2024-03-02T03:39:52;19.42;;;12.57;;
26540;SDS011;14206;50.202;10.948;2024-03-02T03:42:19;20.50;;;12.55;;
26540;SDS011;14206;50.202;10.948;2024-03-02T03:44:46;17.13;;;11.55;;
26540;SDS011;14206;50.202;10.948;2024-03-02T03:47:12;15.82;;;11.30;;
26540;SDS011;14206;50.202;10.948;2024-03-02T03:49:39;22.77;;;13.70;;
26540;SDS011;14206;50.202;10.948;2024-03-02T03:52:06;20.85;;;12.77;;
26540;SDS011;14206;50.202;10.948;2024-03-02T03:54:33;21.02;;;12.77;;
26540;SDS011;14206;50.202;10.948;2024-03-02T03:57:00;17.38;;;11.63;;
26540;SDS011;14206;50.202;10.948;2024-03-02T03:59:27;20.17;;;11.93;;
26540;SDS011;14206;50.202;10.948;2024-03-02T04:01:54;19.17;;;12.57;;
26540;SDS011;14206;50.202;10.948;2024-03-02T04:04:20;17.63;;;11.05;;
26540;SDS011;14206;50.202;10.948;2024-03-02T04:06:47;17.40;;;11.30;;
26540;SDS011;14206;50.202;10.948;2024-03-02T04:09:14;19.42;;;12.50;;
26540;SDS011;14206;50.202;10.948;2024-03-02T04:11:41;23.08;;;13.27;;
26540;SDS011;14206;50.202;10.948;2024-03-02T04:14:09;18.08;;;11.68;;
26540;SDS011;14206;50.202;10.948;2024-03-02T04:16:36;17.05;;;11.63;;
26540;SDS011;14206;50.202;10.948;2024-03-02T04:19:03;17.10;;;11.38;;
26540;SDS011;14206;50.202;10.948;2024-03-02T04:21:30;17.60;;;11.23;;
26540;SDS011;14206;50.202;10.948;2024-03-02T04:23:57;18.67;;;11.48;;
26540;SDS011;14206;50.202;10.948;2024-03-02T04:26:25;17.48;;;11.00;;
26540;SDS011;14206;50.202;10.948;2024-03-02T04:28:52;19.15;;;11.15;;
26540;SDS011;14206;50.202;10.948;2024-03-02T04:31:20;17.10;;;11.43;;
26540;SDS011;14206;50.202;10.948;2024-03-02T04:33:54;18.75;;;12.38;;
26540;SDS011;14206;50.202;10.948;2024-03-02T04:36:21;17.88;;;11.45;;
26540;SDS011;14206;50.202;10.948;2024-03-02T04:38:48;16.15;;;11.07;;
26540;SDS011;14206;50.202;10.948;2024-03-02T04:41:14;17.70;;;11.30;;
26540;SDS011;14206;50.202;10.948;2024-03-02T04:43:41;17.67;;;10.95;;
26540;SDS011;14206;50.202;10.948;2024-03-02T04:46:09;16.85;;;10.85;;
26540;SDS011;14206;50.202;10.948;2024-03-02T04:48:35;16.77;;;10.15;;
26540;SDS011;14206;50.202;10.948;2024-03-02T04:51:03;17.33;;;10.90;;
26540;SDS011;14206;50.202;10.948;2024-03-02T04:53:30;17.52;;;10.52;;
26540;SDS011;14206;50.202;10.948;2024-03-02T04:55:57;16.13;;;10.60;;
26540;SDS011;14206;50.202;10.948;2024-03-02T04:58:42;18.15;;;11.00;;
26540;SDS011;14206;50.202;10.948;2024-03-02T05:01:09;16.58;;;10.93;;
26540;SDS011;14206;50.202;10.948;2024-03-02T05:03:37;17.40;;;11.18;;
26540;SDS011;14206;50.202;10.948;2024-03-02T05:06:04;15.63;;;9.90;;
26540;SDS011;14206;50.202;10.948;2024-03-02T05:08:31;17.85;;;11.38;;
26540;SDS011;14206;50.202;10.948;2024-03-02T05:10:58;17.20;;;10.70;;
26540;SDS011;14206;50.202;10.948;2024-03-02T05:13:45;18.58;;;11.30;;
26540;SDS011;14206;50.202;10.948;2024-03-02T05:16:11;17.35;;;11.15;;
26540;SDS011;14206;50.202;10.948;2024-03-02T05:18:38;16.85;;;11.15;;
26540;SDS011;14206;50.202;10.948;2024-03-02T05:21:05;20.17;;;11.77;;
26540;SDS011;14206;50.202;10.948;2024-03-02T05:23:32;16.65;;;11.40;;
26540;SDS011;14206;50.202;10.948;2024-03-02T05:25:59;17.25;;;11.23;;
26540;SDS011;14206;50.202;10.948;2024-03-02T05:28:26;20.45;;;12.05;;
26540;SDS011;14206;50.202;10.948;2024-03-02T05:30:53;20.35;;;12.57;;
26540;SDS011;14206;50.202;10.948;2024-03-02T05:33:20;18.55;;;11.80;;
26540;SDS011;14206;50.202;10.948;2024-03-02T05:35:49;17.88;;;11.75;;
26540;SDS011;14206;50.202;10.948;2024-03-02T05:38:22;17.98;;;11.77;;
26540;SDS011;14206;50.202;10.948;2024-03-02T05:40:49;20.48;;;13.05;;
26540;SDS011;14206;50.202;10.948;2024-03-02T05:43:16;18.23;;;11.57;;
26540;SDS011;14206;50.202;10.948;2024-03-02T05:45:43;19.08;;;11.52;;
26540;SDS011;14206;50.202;10.948;2024-03-02T05:48:12;19.17;;;11.75;;
26540;SDS011;14206;50.202;10.948;2024-03-02T05:50:38;18.70;;;11.98;;
26540;SDS011;14206;50.202;10.948;2024-03-02T05:53:05;18.63;;;12.00;;
26540;SDS011;14206;50.202;10.948;2024-03-02T05:55:32;20.92;;;12.50;;
26540;SDS011;14206;50.202;10.948;2024-03-02T05:57:59;16.58;;;10.90;;
26540;SDS011;14206;50.202;10.948;2024-03-02T06:00:32;17.25;;;10.93;;
26540;SDS011;14206;50.202;10.948;2024-03-02T06:03:00;17.88;;;11.23;;
26540;SDS011;14206;50.202;10.948;2024-03-02T06:05:27;16.75;;;10.20;;
26540;SDS011;14206;50.202;10.948;2024-03-02T06:07:54;17.48;;;11.13;;
26540;SDS011;14206;50.202;10.948;2024-03-02T06:10:21;17.48;;;10.75;;
26540;SDS011;14206;50.202;10.948;2024-03-02T06:12:47;17.20;;;10.82;;
26540;SDS011;14206;50.202;10.948;2024-03-02T06:15:14;15.80;;;10.48;;
26540;SDS011;14206;50.202;10.948;2024-03-02T06:17:42;15.15;;;10.07;;
26540;SDS011;14206;50.202;10.948;2024-03-02T06:20:09;14.88;;;10.45;;
26540;SDS011;14206;50.202;10.948;2024-03-02T06:22:36;18.00;;;11.95;;
26540;SDS011;14206;50.202;10.948;2024-03-02T06:25:03;20.80;;;13.38;;
26540;SDS011;14206;50.202;10.948;2024-03-02T06:27:30;19.23;;;10.80;;
26540;SDS011;14206;50.202;10.948;2024-03-02T06:29:57;18.83;;;11.93;;
26540;SDS011;14206;50.202;10.948;2024-03-02T06:32:24;19.15;;;11.77;;
26540;SDS011;14206;50.202;10.948;2024-03-02T06:34:51;17.13;;;11.05;;
26540;SDS011;14206;50.202;10.948;2024-03-02T06:37:18;16.67;;;10.75;;
26540;SDS011;14206;50.202;10.948;2024-03-02T06:39:45;16.40;;;10.52;;
26540;SDS011;14206;50.202;10.948;2024-03-02T06:42:12;18.50;;;11.45;;
26540;SDS011;14206;50.202;10.948;2024-03-02T06:44:39;18.42;;;10.88;;
26540;SDS011;14206;50.202;10.948;2024-03-02T06:47:06;17.95;;;11.20;;
26540;SDS011;14206;50.202;10.948;2024-03-02T06:49:32;16.42;;;10.95;;
26540;SDS011;14206;50.202;10.948;2024-03-02T06:52:00;18.52;;;11.50;;
26540;SDS011;14206;50.202;10.948;2024-03-02T06:54:27;18.20;;;11.52;;
26540;SDS011;14206;50.202;10.948;2024-03-02T06:56:54;19.73;;;11.45;;
26540;SDS011;14206;50.202;10.948;2024-03-02T06:59:21;16.92;;;11.10;;
26540;SDS011;14206;50.202;10.948;2024-03-02T07:01:48;17.50;;;10.77;;
26540;SDS011;14206;50.202;10.948;2024-03-02T07:04:15;17.27;;;10.60;;
26540;SDS011;14206;50.202;10.948;2024-03-02T07:06:42;17.93;;;11.27;;
26540;SDS011;14206;50.202;10.948;2024-03-02T07:09:09;17.23;;;11.43;;
26540;SDS011;14206;50.202;10.948;2024-03-02T07:11:37;18.20;;;11.80;;
26540;SDS011;14206;50.202;10.948;2024-03-02T07:14:04;15.55;;;10.95;;
26540;SDS011;14206;50.202;10.948;2024-03-02T07:16:30;16.85;;;11.05;;
26540;SDS011;14206;50.202;10.948;2024-03-02T07:18:59;15.25;;;10.45;;
26540;SDS011;14206;50.202;10.948;2024-03-02T07:21:28;18.65;;;11.05;;
26540;SDS011;14206;50.202;10.948;2024-03-02T07:23:54;16.25;;;10.65;;
26540;SDS011;14206;50.202;10.948;2024-03-02T07:26:22;15.85;;;10.48;;
26540;SDS011;14206;50.202;10.948;2024-03-02T07:28:52;16.88;;;10.90;;
26540;SDS011;14206;50.202;10.948;2024-03-02T07:31:19;16.38;;;11.15;;
26540;SDS011;14206;50.202;10.948;2024-03-02T07:33:47;14.60;;;10.32;;
26540;SDS011;14206;50.202;10.948;2024-03-02T07:36:14;19.52;;;13.27;;
26540;SDS011;14206;50.202;10.948;2024-03-02T07:38:42;17.95;;;11.75;;
26540;SDS011;14206;50.202;10.948;2024-03-02T07:41:10;17.80;;;12.07;;
26540;SDS011;14206;50.202;10.948;2024-03-02T07:43:38;20.17;;;12.80;;
26540;SDS011;14206;50.202;10.948;2024-03-02T07:46:05;17.50;;;11.50;;
26540;SDS011;14206;50.202;10.948;2024-03-02T07:48:32;18.52;;;11.40;;
26540;SDS011;14206;50.202;10.948;2024-03-02T07:50:59;17.98;;;12.13;;
26540;SDS011;14206;50.202;10.948;2024-03-02T07:53:26;19.77;;;12.38;;
26540;SDS011;14206;50.202;10.948;2024-03-02T07:55:53;18.60;;;11.70;;
26540;SDS011;14206;50.202;10.948;2024-03-02T07:58:20;15.55;;;10.68;;
26540;SDS011;14206;50.202;10.948;2024-03-02T08:00:47;17.38;;;12.02;;
26540;SDS011;14206;50.202;10.948;2024-03-02T08:03:17;17.85;;;11.27;;
26540;SDS011;14206;50.202;10.948;2024-03-02T08:05:44;17.50;;;11.95;;
26540;SDS011;14206;50.202;10.948;2024-03-02T08:08:12;17.75;;;11.80;;
26540;SDS011;14206;50.202;10.948;2024-03-02T08:10:54;17.70;;;11.75;;
26540;SDS011;14206;50.202;10.948;2024-03-02T08:13:23;16.88;;;10.73;;
26540;SDS011;14206;50.202;10.948;2024-03-02T08:15:50;17.10;;;11.18;;
26540;SDS011;14206;50.202;10.948;2024-03-02T08:18:17;13.95;;;10.20;;
26540;SDS011;14206;50.202;10.948;2024-03-02T08:20:44;13.85;;;9.98;;
26540;SDS011;14206;50.202;10.948;2024-03-02T08:23:11;15.13;;;9.85;;
26540;SDS011;14206;50.202;10.948;2024-03-02T08:25:38;13.98;;;9.57;;
26540;SDS011;14206;50.202;10.948;2024-03-02T08:28:05;15.57;;;10.77;;
26540;SDS011;14206;50.202;10.948;2024-03-02T08:30:32;17.25;;;12.10;;
26540;SDS011;14206;50.202;10.948;2024-03-02T08:32:59;18.67;;;12.27;;
26540;SDS011;14206;50.202;10.948;2024-03-02T08:35:26;16.20;;;11.52;;
26540;SDS011;14206;50.202;10.948;2024-03-02T08:37:54;17.05;;;12.30;;
26540;SDS011;14206;50.202;10.948;2024-03-02T08:40:21;15.30;;;10.88;;
26540;SDS011;14206;50.202;10.948;2024-03-02T08:42:47;16.02;;;11.90;;
26540;SDS011;14206;50.202;10.948;2024-03-02T08:45:15;17.13;;;12.32;;
26540;SDS011;14206;50.202;10.948;2024-03-02T08:47:42;15.63;;;11.07;;
26540;SDS011;14206;50.202;10.948;2024-03-02T08:50:10;18.88;;;13.75;;
26540;SDS011;14206;50.202;10.948;2024-03-02T08:52:37;18.85;;;12.40;;
26540;SDS011;14206;50.202;10.948;2024-03-02T08:55:04;21.10;;;13.45;;
26540;SDS011;14206;50.202;10.948;2024-03-02T08:57:31;17.20;;;12.27;;
26540;SDS011;14206;50.202;10.948;2024-03-02T08:59:58;18.45;;;13.20;;
26540;SDS011;14206;50.202;10.948;2024-03-02T09:02:26;15.85;;;11.52;;
26540;SDS011;14206;50.202;10.948;2024-03-02T09:04:53;13.07;;;9.82;;
26540;SDS011;14206;50.202;10.948;2024-03-02T09:07:20;15.82;;;11.38;;
26540;SDS011;14206;50.202;10.948;2024-03-02T09:09:47;13.50;;;9.35;;
26540;SDS011;14206;50.202;10.948;2024-03-02T09:12:13;15.55;;;10.45;;
26540;SDS011;14206;50.202;10.948;2024-03-02T09:14:40;16.75;;;10.32;;
26540;SDS011;14206;50.202;10.948;2024-03-02T09:17:08;12.57;;;9.23;;
26540;SDS011;14206;50.202;10.948;2024-03-02T09:19:37;12.20;;;8.98;;
26540;SDS011;14206;50.202;10.948;2024-03-02T09:22:24;12.65;;;8.52;;
26540;SDS011;14206;50.202;10.948;2024-03-02T09:24:51;14.90;;;10.95;;
26540;SDS011;14206;50.202;10.948;2024-03-02T09:27:18;18.58;;;12.60;;
26540;SDS011;14206;50.202;10.948;2024-03-02T09:29:44;15.65;;;10.52;;
26540;SDS011;14206;50.202;10.948;2024-03-02T09:32:12;14.52;;;10.38;;
26540;SDS011;14206;50.202;10.948;2024-03-02T09:34:40;14.48;;;10.43;;
26540;SDS011;14206;50.202;10.948;2024-03-02T09:37:07;13.82;;;10.27;;
26540;SDS011;14206;50.202;10.948;2024-03-02T09:39:34;13.35;;;9.35;;
26540;SDS011;14206;50.202;10.948;2024-03-02T09:42:01;12.23;;;9.25;;
26540;SDS011;14206;50.202;10.948;2024-03-02T09:44:29;12.60;;;9.20;;
26540;SDS011;14206;50.202;10.948;2024-03-02T09:46:56;10.07;;;7.22;;
26540;SDS011;14206;50.202;10.948;2024-03-02T09:49:23;10.32;;;7.50;;
26540;SDS011;14206;50.202;10.948;2024-03-02T09:51:50;10.38;;;7.78;;
26540;SDS011;14206;50.202;10.948;2024-03-02T09:54:17;10.57;;;7.85;;
26540;SDS011;14206;50.202;10.948;2024-03-02T09:56:49;9.68;;;7.30;;
26540;SDS011;14206;50.202;10.948;2024-03-02T09:59:17;11.98;;;7.63;;
26540;SDS011;14206;50.202;10.948;2024-03-02T10:02:02;10.95;;;7.63;;
26540;SDS011;14206;50.202;10.948;2024-03-02T10:04:30;11.23;;;7.55;;
26540;SDS011;14206;50.202;10.948;2024-03-02T10:07:17;10.77;;;7.60;;
26540;SDS011;14206;50.202;10.948;2024-03-02T10:09:45;9.20;;;6.90;;
26540;SDS011;14206;50.202;10.948;2024-03-02T10:12:15;10.65;;;7.95;;
26540;SDS011;14206;50.202;10.948;2024-03-02T10:14:43;10.48;;;7.28;;
26540;SDS011;14206;50.202;10.948;2024-03-02T10:17:11;9.40;;;6.50;;
26540;SDS011;14206;50.202;10.948;2024-03-02T10:19:39;9.93;;;7.50;;
26540;SDS011;14206;50.202;10.948;2024-03-02T10:22:07;9.82;;;7.25;;
26540;SDS011;14206;50.202;10.948;2024-03-02T10:27:07;8.20;;;6.70;;
26540;SDS011;14206;50.202;10.948;2024-03-02T10:29:38;10.25;;;7.32;;
26540;SDS011;14206;50.202;10.948;2024-03-02T10:32:10;8.32;;;6.25;;
26540;SDS011;14206;50.202;10.948;2024-03-02T10:34:41;8.10;;;6.00;;
26540;SDS011;14206;50.202;10.948;2024-03-02T10:37:10;7.40;;;5.40;;
26540;SDS011;14206;50.202;10.948;2024-03-02T10:39:39;7.82;;;5.70;;
26540;SDS011;14206;50.202;10.948;2024-03-02T10:42:07;9.63;;;7.70;;
26540;SDS011;14206;50.202;10.948;2024-03-02T10:44:34;7.78;;;5.95;;
26540;SDS011;14206;50.202;10.948;2024-03-02T10:47:03;10.10;;;7.30;;
26540;SDS011;14206;50.202;10.948;2024-03-02T10:49:31;9.18;;;7.50;;
26540;SDS011;14206;50.202;10.948;2024-03-02T10:51:59;7.93;;;6.40;;
26540;SDS011;14206;50.202;10.948;2024-03-02T10:54:27;11.25;;;9.00;;
26540;SDS011;14206;50.202;10.948;2024-03-02T10:56:58;10.55;;;8.18;;
26540;SDS011;14206;50.202;10.948;2024-03-02T10:59:32;9.07;;;7.25;;
26540;SDS011;14206;50.202;10.948;2024-03-02T11:02:03;13.73;;;10.77;;
26540;SDS011;14206;50.202;10.948;2024-03-02T11:04:32;11.85;;;8.70;;
26540;SDS011;14206;50.202;10.948;2024-03-02T11:07:00;11.15;;;8.68;;
26540;SDS011;14206;50.202;10.948;2024-03-02T11:09:34;10.15;;;7.55;;
26540;SDS011;14206;50.202;10.948;2024-03-02T11:12:09;9.10;;;7.50;;
26540;SDS011;14206;50.202;10.948;2024-03-02T11:14:42;8.88;;;7.15;;
26540;SDS011;14206;50.202;10.948;2024-03-02T11:17:12;8.80;;;6.75;;
26540;SDS011;14206;50.202;10.948;2024-03-02T11:19:43;9.38;;;7.18;;
26540;SDS011;14206;50.202;10.948;2024-03-02T11:22:12;7.85;;;6.65;;
26540;SDS011;14206;50.202;10.948;2024-03-02T11:24:39;10.10;;;6.90;;
26540;SDS011;14206;50.202;10.948;2024-03-02T11:27:58;10.10;;;7.07;;
26540;SDS011;14206;50.202;10.948;2024-03-02T11:33:13;7.50;;;5.72;;
26540;SDS011;14206;50.202;10.948;2024-03-02T11:35:41;9.25;;;5.88;;
26540;SDS011;14206;50.202;10.948;2024-03-02T11:38:12;8.80;;;6.78;;
26540;SDS011;14206;50.202;10.948;2024-03-02T11:40:39;7.32;;;5.90;;
26540;SDS011;14206;50.202;10.948;2024-03-02T11:43:07;9.70;;;6.95;;
26540;SDS011;14206;50.202;10.948;2024-03-02T11:45:43;8.55;;;6.80;;
26540;SDS011;14206;50.202;10.948;2024-03-02T11:48:14;8.20;;;6.30;;
26540;SDS011;14206;50.202;10.948;2024-03-02T11:50:49;9.02;;;5.40;;
26540;SDS011;14206;50.202;10.948;2024-03-02T11:53:17;8.75;;;6.60;;
26540;SDS011;14206;50.202;10.948;2024-03-02T11:55:45;7.80;;;5.38;;
26540;SDS011;14206;50.202;10.948;2024-03-02T11:58:14;7.93;;;6.60;;
26540;SDS011;14206;50.202;10.948;2024-03-02T12:00:46;7.22;;;5.45;;
26540;SDS011;14206;50.202;10.948;2024-03-02T12:03:14;10.13;;;6.47;;
26540;SDS011;14206;50.202;10.948;2024-03-02T12:05:42;7.07;;;5.55;;
26540;SDS011;14206;50.202;10.948;2024-03-02T12:08:10;7.18;;;5.88;;
26540;SDS011;14206;50.202;10.948;2024-03-02T12:10:39;6.85;;;5.43;;
26540;SDS011;14206;50.202;10.948;2024-03-02T12:13:06;8.68;;;6.57;;
26540;SDS011;14206;50.202;10.948;2024-03-02T12:15:34;7.93;;;6.40;;
26540;SDS011;14206;50.202;10.948;2024-03-02T12:18:06;8.95;;;6.47;;
26540;SDS011;14206;50.202;10.948;2024-03-02T12:20:33;9.38;;;6.80;;
26540;SDS011;14206;50.202;10.948;2024-03-02T12:23:01;7.07;;;5.88;;
26540;SDS011;14206;50.202;10.948;2024-03-02T12:25:30;11.20;;;7.38;;
26540;SDS011;14206;50.202;10.948;2024-03-02T12:27:59;10.25;;;6.57;;
26540;SDS011;14206;50.202;10.948;2024-03-02T12:30:29;7.57;;;5.80;;
26540;SDS011;14206;50.202;10.948;2024-03-02T12:32:59;9.45;;;7.40;;
26540;SDS011;14206;50.202;10.948;2024-03-02T12:35:26;12.82;;;8.27;;
26540;SDS011;14206;50.202;10.948;2024-03-02T12:37:53;8.70;;;6.40;;
26540;SDS011;14206;50.202;10.948;2024-03-02T12:40:21;7.50;;;6.07;;
26540;SDS011;14206;50.202;10.948;2024-03-02T12:42:49;6.60;;;5.40;;
26540;SDS011;14206;50.202;10.948;2024-03-02T12:45:18;6.25;;;5.20;;
26540;SDS011;14206;50.202;10.948;2024-03-02T12:47:51;7.55;;;5.80;;
26540;SDS011;14206;50.202;10.948;2024-03-02T12:50:19;8.73;;;6.60;;
26540;SDS011;14206;50.202;10.948;2024-03-02T12:52:53;7.68;;;5.65;;
26540;SDS011;14206;50.202;10.948;2024-03-02T12:55:21;7.50;;;6.20;;
26540;SDS011;14206;50.202;10.948;2024-03-02T12:57:52;12.07;;;9.45;;
26540;SDS011;14206;50.202;10.948;2024-03-02T13:00:20;8.85;;;7.15;;
26540;SDS011;14206;50.202;10.948;2024-03-02T13:02:49;6.82;;;5.40;;
26540;SDS011;14206;50.202;10.948;2024-03-02T13:05:17;7.00;;;5.25;;
26540;SDS011;14206;50.202;10.948;2024-03-02T13:07:46;5.88;;;4.55;;
26540;SDS011;14206;50.202;10.948;2024-03-02T13:10:21;5.93;;;4.90;;
26540;SDS011;14206;50.202;10.948;2024-03-02T13:12:48;5.82;;;4.82;;
26540;SDS011;14206;50.202;10.948;2024-03-02T13:15:16;5.63;;;4.38;;
26540;SDS011;14206;50.202;10.948;2024-03-02T13:17:44;7.47;;;5.80;;
26540;SDS011;14206;50.202;10.948;2024-03-02T13:20:14;7.03;;;5.63;;
26540;SDS011;14206;50.202;10.948;2024-03-02T13:22:41;7.32;;;5.45;;
26540;SDS011;14206;50.202;10.948;2024-03-02T13:25:09;6.05;;;5.13;;
26540;SDS011;14206;50.202;10.948;2024-03-02T13:27:38;5.57;;;4.72;;
26540;SDS011;14206;50.202;10.948;2024-03-02T13:30:05;6.07;;;4.57;;
26540;SDS011;14206;50.202;10.948;2024-03-02T13:32:32;5.50;;;4.38;;
26540;SDS011;14206;50.202;10.948;2024-03-02T13:34:59;4.78;;;4.03;;
26540;SDS011;14206;50.202;10.948;2024-03-02T13:37:26;5.18;;;4.05;;
26540;SDS011;14206;50.202;10.948;2024-03-02T13:39:53;4.45;;;3.80;;
26540;SDS011;14206;50.202;10.948;2024-03-02T13:42:20;7.03;;;5.18;;
26540;SDS011;14206;50.202;10.948;2024-03-02T13:44:47;7.00;;;5.65;;
26540;SDS011;14206;50.202;10.948;2024-03-02T13:47:17;5.68;;;4.53;;
26540;SDS011;14206;50.202;10.948;2024-03-02T13:49:44;6.90;;;5.53;;
26540;SDS011;14206;50.202;10.948;2024-03-02T13:52:13;8.03;;;6.33;;
26540;SDS011;14206;50.202;10.948;2024-03-02T13:54:40;7.18;;;5.38;;
26540;SDS011;14206;50.202;10.948;2024-03-02T13:57:09;5.22;;;4.38;;
26540;SDS011;14206;50.202;10.948;2024-03-02T13:59:36;5.85;;;5.18;;
26540;SDS011;14206;50.202;10.948;2024-03-02T14:02:05;7.43;;;5.88;;
26540;SDS011;14206;50.202;10.948;2024-03-02T14:04:36;6.75;;;5.53;;
26540;SDS011;14206;50.202;10.948;2024-03-02T14:07:04;8.35;;;6.20;;
26540;SDS011;14206;50.202;10.948;2024-03-02T14:09:35;7.35;;;5.90;;
26540;SDS011;14206;50.202;10.948;2024-03-02T14:12:03;7.38;;;6.22;;
26540;SDS011;14206;50.202;10.948;2024-03-02T14:14:31;6.60;;;4.90;;
26540;SDS011;14206;50.202;10.948;2024-03-02T14:16:59;5.28;;;4.40;;
26540;SDS011;14206;50.202;10.948;2024-03-02T14:19:33;7.50;;;5.63;;
26540;SDS011;14206;50.202;10.948;2024-03-02T14:21:59;8.38;;;6.00;;
26540;SDS011;14206;50.202;10.948;2024-03-02T14:24:26;6.45;;;5.28;;
26540;SDS011;14206;50.202;10.948;2024-03-02T14:26:56;11.55;;;8.07;;
26540;SDS011;14206;50.202;10.948;2024-03-02T14:29:40;7.47;;;6.10;;
26540;SDS011;14206;50.202;10.948;2024-03-02T14:32:08;6.50;;;5.00;;